This is the latest recevied weather packets stored in our database for station/object VE3ZEB-1. If no packets are shown the sender has not sent any weather packets the latest 10 day(s).
| Time | Temp. | Humidity | Pressure | Rain* | Wind** | Luminosity | Snow |
|---|---|---|---|---|---|---|---|
| 1777279822 | 6.11° C | 68% | 679.3 hPa | 0 mm | - | 0 W/m² | - |
| 1777273823 | 6.67° C | 67% | 679.4 hPa | 0 mm | - | 0 W/m² | - |
| 1777272023 | 7.22° C | 66% | 679.4 hPa | 0 mm | - | 0 W/m² | - |
| 1777269644 | 6.67° C | 62% | 679.4 hPa | 0 mm | - | 0 W/m² | - |
| 1777267224 | 6.67° C | 59% | 679.4 hPa | 0 mm | - | 0 W/m² | - |
| 1777264825 | 6.67° C | 60% | 679.4 hPa | 0 mm | - | 0 W/m² | - |
| 1777264245 | 7.22° C | 61% | 679.4 hPa | 0 mm | - | 0 W/m² | - |
| 1777262425 | 7.78° C | 60% | 679.4 hPa | 0 mm | - | 0 W/m² | - |
| 1777261826 | 7.78° C | 58% | 679.5 hPa | 0 mm | - | 0 W/m² | - |
| 1777259426 | 8.89° C | 56% | 679.5 hPa | 0 mm | - | 0 W/m² | - |
| 1777258846 | 9.44° C | 53% | 679.5 hPa | 0 mm | - | 0 W/m² | - |
| 1777255827 | 10.56° C | 53% | 679.6 hPa | 0 mm | - | 0 W/m² | - |
| 1777255227 | 11.11° C | 53% | 679.6 hPa | 0 mm | - | 0 W/m² | - |
| 1777254627 | 11.11° C | 53% | 679.6 hPa | 0 mm | - | 0 W/m² | - |
| 1777245029 | 16.11° C | 53% | 679.8 hPa | 0 mm | - | 67 W/m² | - |
| 1777244430 | 16.11° C | 51% | 679.8 hPa | 0 mm | - | 66 W/m² | - |
| 1777240231 | 18.89° C | 49% | 679.9 hPa | 0 mm | - | 231 W/m² | - |
| 1777237231 | 18.33° C | 51% | 679.9 hPa | 0 mm | - | 176 W/m² | - |
| 1777235416 | 18.33° C | 53% | 679.9 hPa | 0 mm | - | 155 W/m² | - |
| 1777233017 | 18.33° C | 53% | 679.9 hPa | 0 mm | - | 316 W/m² | - |
| 1777232404 | 18.33° C | 53% | 679.9 hPa | 0 mm | - | 316 W/m² | - |
| 1777223460 | 18.33° C | 54% | 679.9 hPa | 0 mm | - | 869 W/m² | - |
| 1777218621 | 16.67° C | 57% | 679.8 hPa | 0 mm | - | 775 W/m² | - |
| 1777214422 | 14.44° C | 62% | 679.6 hPa | 0 mm | - | 613 W/m² | - |
| 1777204224 | 6.11° C | 80% | 679.3 hPa | 0 mm | - | 46 W/m² | - |
* Rain latest hour (hover to see other rain measurements)
** Current wind speed in m/s (hover to see current wind gust speed)